sensor_id;sensor_type;location;lat;lon;timestamp;P1;durP1;ratioP1;P2;durP2;ratioP2
10920;SDS011;5513;50.580;8.818;2023-01-06T00:01:39;23.73;;;8.17;;
10920;SDS011;5513;50.580;8.818;2023-01-06T00:04:09;21.20;;;8.83;;
10920;SDS011;5513;50.580;8.818;2023-01-06T00:06:40;21.30;;;9.00;;
10920;SDS011;5513;50.580;8.818;2023-01-06T00:09:08;23.50;;;8.47;;
10920;SDS011;5513;50.580;8.818;2023-01-06T00:11:39;19.90;;;8.30;;
10920;SDS011;5513;50.580;8.818;2023-01-06T00:14:19;23.63;;;7.80;;
10920;SDS011;5513;50.580;8.818;2023-01-06T00:16:48;21.73;;;9.43;;
10920;SDS011;5513;50.580;8.818;2023-01-06T00:19:17;24.53;;;9.27;;
10920;SDS011;5513;50.580;8.818;2023-01-06T00:21:46;23.17;;;10.70;;
10920;SDS011;5513;50.580;8.818;2023-01-06T00:24:14;23.67;;;9.60;;
10920;SDS011;5513;50.580;8.818;2023-01-06T00:26:44;27.33;;;10.37;;
10920;SDS011;5513;50.580;8.818;2023-01-06T00:29:16;19.63;;;9.63;;
10920;SDS011;5513;50.580;8.818;2023-01-06T00:31:45;23.30;;;10.50;;
10920;SDS011;5513;50.580;8.818;2023-01-06T00:34:17;21.50;;;9.87;;
10920;SDS011;5513;50.580;8.818;2023-01-06T00:36:47;24.60;;;10.37;;
10920;SDS011;5513;50.580;8.818;2023-01-06T00:39:20;31.67;;;14.80;;
10920;SDS011;5513;50.580;8.818;2023-01-06T00:41:50;26.10;;;10.80;;
10920;SDS011;5513;50.580;8.818;2023-01-06T00:44:35;27.23;;;11.00;;
10920;SDS011;5513;50.580;8.818;2023-01-06T00:47:06;18.43;;;10.33;;
10920;SDS011;5513;50.580;8.818;2023-01-06T00:49:37;24.67;;;11.20;;
10920;SDS011;5513;50.580;8.818;2023-01-06T00:52:07;26.33;;;10.40;;
10920;SDS011;5513;50.580;8.818;2023-01-06T00:54:37;24.40;;;11.17;;
10920;SDS011;5513;50.580;8.818;2023-01-06T00:57:06;21.80;;;10.53;;
10920;SDS011;5513;50.580;8.818;2023-01-06T00:59:36;27.77;;;11.20;;
10920;SDS011;5513;50.580;8.818;2023-01-06T01:02:06;26.80;;;10.47;;
10920;SDS011;5513;50.580;8.818;2023-01-06T01:04:35;26.47;;;11.37;;
10920;SDS011;5513;50.580;8.818;2023-01-06T01:07:04;23.20;;;11.13;;
10920;SDS011;5513;50.580;8.818;2023-01-06T01:09:37;22.23;;;10.43;;
10920;SDS011;5513;50.580;8.818;2023-01-06T01:12:06;21.97;;;10.30;;
10920;SDS011;5513;50.580;8.818;2023-01-06T01:14:42;25.53;;;10.73;;
10920;SDS011;5513;50.580;8.818;2023-01-06T01:17:13;24.03;;;10.03;;
10920;SDS011;5513;50.580;8.818;2023-01-06T01:19:45;29.03;;;10.67;;
10920;SDS011;5513;50.580;8.818;2023-01-06T01:22:17;23.13;;;11.63;;
10920;SDS011;5513;50.580;8.818;2023-01-06T01:24:48;28.27;;;10.93;;
10920;SDS011;5513;50.580;8.818;2023-01-06T01:27:19;20.70;;;11.23;;
10920;SDS011;5513;50.580;8.818;2023-01-06T01:29:49;24.57;;;11.67;;
10920;SDS011;5513;50.580;8.818;2023-01-06T01:32:18;19.53;;;9.80;;
10920;SDS011;5513;50.580;8.818;2023-01-06T01:34:50;23.20;;;10.33;;
10920;SDS011;5513;50.580;8.818;2023-01-06T01:37:19;21.67;;;11.00;;
10920;SDS011;5513;50.580;8.818;2023-01-06T01:39:50;23.60;;;11.80;;
10920;SDS011;5513;50.580;8.818;2023-01-06T01:42:19;20.13;;;12.83;;
10920;SDS011;5513;50.580;8.818;2023-01-06T01:44:56;23.77;;;12.70;;
10920;SDS011;5513;50.580;8.818;2023-01-06T01:47:31;30.60;;;13.77;;
10920;SDS011;5513;50.580;8.818;2023-01-06T01:50:15;23.97;;;12.50;;
10920;SDS011;5513;50.580;8.818;2023-01-06T01:52:53;31.67;;;13.57;;
10920;SDS011;5513;50.580;8.818;2023-01-06T01:55:25;25.03;;;13.13;;
10920;SDS011;5513;50.580;8.818;2023-01-06T01:57:58;28.43;;;14.00;;
10920;SDS011;5513;50.580;8.818;2023-01-06T02:00:31;28.10;;;13.60;;
10920;SDS011;5513;50.580;8.818;2023-01-06T02:03:01;31.00;;;14.87;;
10920;SDS011;5513;50.580;8.818;2023-01-06T02:05:33;31.87;;;16.70;;
10920;SDS011;5513;50.580;8.818;2023-01-06T02:08:08;26.73;;;15.13;;
10920;SDS011;5513;50.580;8.818;2023-01-06T02:10:43;23.90;;;14.07;;
10920;SDS011;5513;50.580;8.818;2023-01-06T02:13:12;24.73;;;14.30;;
10920;SDS011;5513;50.580;8.818;2023-01-06T02:15:42;26.00;;;14.57;;
10920;SDS011;5513;50.580;8.818;2023-01-06T02:18:17;25.30;;;14.90;;
10920;SDS011;5513;50.580;8.818;2023-01-06T02:21:13;29.60;;;14.90;;
10920;SDS011;5513;50.580;8.818;2023-01-06T02:23:55;23.77;;;14.07;;
10920;SDS011;5513;50.580;8.818;2023-01-06T02:29:43;27.63;;;15.53;;
10920;SDS011;5513;50.580;8.818;2023-01-06T02:32:42;22.67;;;13.77;;
10920;SDS011;5513;50.580;8.818;2023-01-06T02:35:53;24.67;;;14.03;;
10920;SDS011;5513;50.580;8.818;2023-01-06T02:38:38;26.77;;;13.83;;
10920;SDS011;5513;50.580;8.818;2023-01-06T02:41:40;21.73;;;13.50;;
10920;SDS011;5513;50.580;8.818;2023-01-06T02:44:15;23.07;;;14.27;;
10920;SDS011;5513;50.580;8.818;2023-01-06T02:46:54;24.77;;;15.20;;
10920;SDS011;5513;50.580;8.818;2023-01-06T02:49:34;21.33;;;14.03;;
10920;SDS011;5513;50.580;8.818;2023-01-06T02:52:18;23.10;;;14.80;;
10920;SDS011;5513;50.580;8.818;2023-01-06T02:54:52;21.60;;;13.70;;
10920;SDS011;5513;50.580;8.818;2023-01-06T02:57:26;22.23;;;13.67;;
10920;SDS011;5513;50.580;8.818;2023-01-06T03:00:05;24.77;;;13.90;;
10920;SDS011;5513;50.580;8.818;2023-01-06T03:02:39;20.33;;;12.77;;
10920;SDS011;5513;50.580;8.818;2023-01-06T03:05:16;19.70;;;13.63;;
10920;SDS011;5513;50.580;8.818;2023-01-06T03:07:47;23.30;;;13.60;;
10920;SDS011;5513;50.580;8.818;2023-01-06T03:10:17;23.63;;;13.97;;
10920;SDS011;5513;50.580;8.818;2023-01-06T03:12:51;21.93;;;13.57;;
10920;SDS011;5513;50.580;8.818;2023-01-06T03:15:24;18.90;;;11.20;;
10920;SDS011;5513;50.580;8.818;2023-01-06T03:17:52;14.80;;;8.73;;
10920;SDS011;5513;50.580;8.818;2023-01-06T03:20:23;11.50;;;7.40;;
10920;SDS011;5513;50.580;8.818;2023-01-06T03:22:53;8.63;;;5.70;;
10920;SDS011;5513;50.580;8.818;2023-01-06T03:25:21;9.23;;;5.33;;
10920;SDS011;5513;50.580;8.818;2023-01-06T03:27:51;6.97;;;5.10;;
10920;SDS011;5513;50.580;8.818;2023-01-06T03:30:20;9.23;;;6.03;;
10920;SDS011;5513;50.580;8.818;2023-01-06T03:32:52;7.83;;;5.67;;
10920;SDS011;5513;50.580;8.818;2023-01-06T03:35:43;7.50;;;5.37;;
10920;SDS011;5513;50.580;8.818;2023-01-06T03:38:20;6.00;;;4.80;;
10920;SDS011;5513;50.580;8.818;2023-01-06T03:40:57;6.93;;;4.63;;
10920;SDS011;5513;50.580;8.818;2023-01-06T03:43:33;8.20;;;5.27;;
10920;SDS011;5513;50.580;8.818;2023-01-06T03:46:08;7.00;;;4.90;;
10920;SDS011;5513;50.580;8.818;2023-01-06T03:48:54;7.03;;;4.70;;
10920;SDS011;5513;50.580;8.818;2023-01-06T03:54:26;7.80;;;5.70;;
10920;SDS011;5513;50.580;8.818;2023-01-06T03:57:03;8.97;;;5.23;;
10920;SDS011;5513;50.580;8.818;2023-01-06T03:59:38;6.00;;;4.47;;
10920;SDS011;5513;50.580;8.818;2023-01-06T04:02:12;5.43;;;3.97;;
10920;SDS011;5513;50.580;8.818;2023-01-06T04:04:40;5.27;;;3.50;;
10920;SDS011;5513;50.580;8.818;2023-01-06T04:07:11;5.07;;;3.53;;
10920;SDS011;5513;50.580;8.818;2023-01-06T04:09:41;3.47;;;2.80;;
10920;SDS011;5513;50.580;8.818;2023-01-06T04:12:09;3.83;;;3.17;;
10920;SDS011;5513;50.580;8.818;2023-01-06T04:14:55;3.13;;;2.50;;
10920;SDS011;5513;50.580;8.818;2023-01-06T04:17:24;5.57;;;2.60;;
10920;SDS011;5513;50.580;8.818;2023-01-06T04:19:53;3.23;;;2.30;;
10920;SDS011;5513;50.580;8.818;2023-01-06T04:22:23;2.63;;;2.07;;
10920;SDS011;5513;50.580;8.818;2023-01-06T04:24:52;2.37;;;1.80;;
10920;SDS011;5513;50.580;8.818;2023-01-06T04:27:23;3.77;;;1.40;;
10920;SDS011;5513;50.580;8.818;2023-01-06T04:29:52;1.50;;;1.30;;
10920;SDS011;5513;50.580;8.818;2023-01-06T04:32:20;1.97;;;1.13;;
10920;SDS011;5513;50.580;8.818;2023-01-06T04:34:48;1.17;;;1.00;;
10920;SDS011;5513;50.580;8.818;2023-01-06T04:37:17;1.67;;;0.80;;
10920;SDS011;5513;50.580;8.818;2023-01-06T04:39:56;0.70;;;0.70;;
10920;SDS011;5513;50.580;8.818;2023-01-06T04:42:26;0.50;;;0.50;;
10920;SDS011;5513;50.580;8.818;2023-01-06T04:44:54;0.40;;;0.40;;
10920;SDS011;5513;50.580;8.818;2023-01-06T04:47:23;1.90;;;0.30;;
10920;SDS011;5513;50.580;8.818;2023-01-06T04:49:52;0.50;;;0.27;;
10920;SDS011;5513;50.580;8.818;2023-01-06T04:52:22;0.30;;;0.30;;
10920;SDS011;5513;50.580;8.818;2023-01-06T04:54:50;0.77;;;0.33;;
10920;SDS011;5513;50.580;8.818;2023-01-06T04:57:20;0.67;;;0.37;;
10920;SDS011;5513;50.580;8.818;2023-01-06T04:59:49;0.30;;;0.20;;
10920;SDS011;5513;50.580;8.818;2023-01-06T05:02:21;0.93;;;0.50;;
10920;SDS011;5513;50.580;8.818;2023-01-06T05:04:51;0.40;;;0.40;;
10920;SDS011;5513;50.580;8.818;2023-01-06T05:07:20;0.40;;;0.30;;
10920;SDS011;5513;50.580;8.818;2023-01-06T05:09:50;0.67;;;0.40;;
10920;SDS011;5513;50.580;8.818;2023-01-06T05:12:22;1.40;;;0.30;;
10920;SDS011;5513;50.580;8.818;2023-01-06T05:14:51;0.37;;;0.30;;
10920;SDS011;5513;50.580;8.818;2023-01-06T05:17:19;1.53;;;0.40;;
10920;SDS011;5513;50.580;8.818;2023-01-06T05:19:49;1.60;;;0.30;;
10920;SDS011;5513;50.580;8.818;2023-01-06T05:22:18;0.47;;;0.40;;
10920;SDS011;5513;50.580;8.818;2023-01-06T05:24:46;0.53;;;0.30;;
10920;SDS011;5513;50.580;8.818;2023-01-06T05:27:15;0.30;;;0.30;;
10920;SDS011;5513;50.580;8.818;2023-01-06T05:29:46;0.90;;;0.40;;
10920;SDS011;5513;50.580;8.818;2023-01-06T05:32:16;1.20;;;0.40;;
10920;SDS011;5513;50.580;8.818;2023-01-06T05:34:44;0.50;;;0.40;;
10920;SDS011;5513;50.580;8.818;2023-01-06T05:37:14;1.10;;;0.50;;
10920;SDS011;5513;50.580;8.818;2023-01-06T05:39:43;0.57;;;0.27;;
10920;SDS011;5513;50.580;8.818;2023-01-06T05:42:14;0.93;;;0.60;;
10920;SDS011;5513;50.580;8.818;2023-01-06T05:44:43;1.20;;;0.50;;
10920;SDS011;5513;50.580;8.818;2023-01-06T05:47:13;1.27;;;0.87;;
10920;SDS011;5513;50.580;8.818;2023-01-06T05:49:41;1.23;;;0.50;;
10920;SDS011;5513;50.580;8.818;2023-01-06T05:52:13;0.67;;;0.60;;
10920;SDS011;5513;50.580;8.818;2023-01-06T05:54:43;0.63;;;0.50;;
10920;SDS011;5513;50.580;8.818;2023-01-06T05:57:13;0.57;;;0.40;;
10920;SDS011;5513;50.580;8.818;2023-01-06T05:59:42;0.70;;;0.40;;
10920;SDS011;5513;50.580;8.818;2023-01-06T06:02:14;1.40;;;0.40;;
10920;SDS011;5513;50.580;8.818;2023-01-06T06:04:43;0.80;;;0.50;;
10920;SDS011;5513;50.580;8.818;2023-01-06T06:07:16;1.30;;;0.60;;
10920;SDS011;5513;50.580;8.818;2023-01-06T06:09:44;1.27;;;0.50;;
10920;SDS011;5513;50.580;8.818;2023-01-06T06:12:13;0.53;;;0.30;;
10920;SDS011;5513;50.580;8.818;2023-01-06T06:14:44;2.00;;;0.43;;
10920;SDS011;5513;50.580;8.818;2023-01-06T06:17:12;1.97;;;0.40;;
10920;SDS011;5513;50.580;8.818;2023-01-06T06:19:42;1.00;;;0.57;;
10920;SDS011;5513;50.580;8.818;2023-01-06T06:22:11;1.13;;;0.50;;
10920;SDS011;5513;50.580;8.818;2023-01-06T06:24:39;1.87;;;0.60;;
10920;SDS011;5513;50.580;8.818;2023-01-06T06:27:08;0.90;;;0.50;;
10920;SDS011;5513;50.580;8.818;2023-01-06T06:29:36;0.97;;;0.50;;
10920;SDS011;5513;50.580;8.818;2023-01-06T06:32:06;0.57;;;0.33;;
10920;SDS011;5513;50.580;8.818;2023-01-06T06:34:36;1.23;;;0.50;;
10920;SDS011;5513;50.580;8.818;2023-01-06T06:37:05;1.37;;;0.50;;
10920;SDS011;5513;50.580;8.818;2023-01-06T06:39:34;2.53;;;0.60;;
10920;SDS011;5513;50.580;8.818;2023-01-06T06:42:02;1.30;;;0.60;;
10920;SDS011;5513;50.580;8.818;2023-01-06T06:44:31;3.27;;;0.60;;
10920;SDS011;5513;50.580;8.818;2023-01-06T06:46:59;2.33;;;0.70;;
10920;SDS011;5513;50.580;8.818;2023-01-06T06:49:28;1.77;;;0.70;;
10920;SDS011;5513;50.580;8.818;2023-01-06T06:51:58;1.30;;;0.50;;
10920;SDS011;5513;50.580;8.818;2023-01-06T06:54:26;2.77;;;0.70;;
10920;SDS011;5513;50.580;8.818;2023-01-06T06:56:55;1.10;;;0.60;;
10920;SDS011;5513;50.580;8.818;2023-01-06T23:08:00;6.60;;;5.50;;
10920;SDS011;5513;50.580;8.818;2023-01-06T23:14:10;8.10;;;5.80;;
